createdAt,value
2023-02-25T05:00:55.033Z,87.57
2023-02-25T05:01:55.050Z,87.05
2023-02-25T05:02:54.992Z,87.26
2023-02-25T05:03:54.964Z,87.47
2023-02-25T05:04:54.965Z,86.54
2023-02-25T05:05:54.927Z,87.99
2023-02-25T05:06:54.934Z,86.64
2023-02-25T05:07:54.890Z,86.54
2023-02-25T05:08:54.953Z,87.37
2023-02-25T05:09:54.882Z,86.33
2023-02-25T05:10:54.935Z,86.22
2023-02-25T05:11:54.835Z,85.81
2023-02-25T05:12:58.235Z,85.19
2023-02-25T05:13:54.817Z,84.98
2023-02-25T05:14:54.813Z,85.19
2023-02-25T05:15:54.837Z,85.29
2023-02-25T05:16:54.834Z,84.67
2023-02-25T05:17:54.756Z,85.19
2023-02-25T05:18:54.789Z,84.88
2023-02-25T05:19:54.745Z,84.98
2023-02-25T05:20:54.756Z,84.88
2023-02-25T05:21:54.744Z,85.08
2023-02-25T05:22:54.768Z,85.81
2023-02-25T05:23:54.696Z,85.39
2023-02-25T05:24:54.707Z,85.85
2023-02-25T05:25:54.702Z,85.74
2023-02-25T05:26:54.684Z,85.33
2023-02-25T05:27:54.652Z,85.50
2023-02-25T05:28:54.746Z,85.74
2023-02-25T05:29:54.664Z,85.74
2023-02-25T05:30:54.674Z,85.95
2023-02-25T05:31:54.798Z,86.57
2023-02-25T05:32:54.766Z,86.99
2023-02-25T05:33:54.561Z,86.36
2023-02-25T05:34:54.609Z,86.05
2023-02-25T05:35:54.547Z,86.57
2023-02-25T05:36:54.547Z,86.78
2023-02-25T05:37:54.506Z,87.30
2023-02-25T05:38:54.525Z,87.09
2023-02-25T05:39:54.539Z,86.16
2023-02-25T05:40:54.496Z,86.26
2023-02-25T05:41:54.468Z,85.85
2023-02-25T05:42:54.497Z,85.53
2023-02-25T05:43:54.433Z,84.70
2023-02-25T05:44:54.487Z,84.91
2023-02-25T05:45:54.466Z,84.91
2023-02-25T05:46:54.438Z,85.43
2023-02-25T05:47:54.385Z,84.29
2023-02-25T05:48:54.536Z,83.15
2023-02-25T05:49:54.374Z,83.36
2023-02-25T05:50:54.374Z,83.67
2023-02-25T05:51:54.386Z,83.36
2023-02-25T05:52:54.333Z,83.46
2023-02-25T05:53:54.320Z,83.15
2023-02-25T05:54:54.322Z,82.84
2023-02-25T05:55:54.351Z,83.04
2023-02-25T05:56:54.308Z,83.46
2023-02-25T05:57:54.261Z,83.98
2023-02-25T05:58:54.267Z,82.73
2023-02-25T05:59:54.248Z,82.21
2023-02-25T06:00:54.240Z,82.42
2023-02-25T06:01:54.276Z,82.21
2023-02-25T06:02:54.227Z,82.53
2023-02-25T06:03:54.179Z,82.53
2023-02-25T06:04:54.186Z,82.01
2023-02-25T06:05:54.181Z,82.42
2023-02-25T06:06:54.173Z,82.42
2023-02-25T06:07:54.178Z,82.11
2023-02-25T06:08:54.147Z,81.90
2023-02-25T06:09:54.144Z,81.28
2023-02-25T06:10:54.155Z,80.87
2023-02-25T06:11:54.085Z,81.28
2023-02-25T06:12:54.089Z,81.70
2023-02-25T06:13:54.061Z,82.32
2023-02-25T06:14:54.101Z,82.84
2023-02-25T06:15:54.022Z,82.01
2023-02-25T06:16:54.069Z,82.32
2023-02-25T06:17:54.008Z,82.11
2023-02-25T06:18:54.021Z,81.80
2023-02-25T06:19:54.020Z,82.63
2023-02-25T06:20:53.978Z,82.94
2023-02-25T06:21:53.950Z,82.42
2023-02-25T06:22:53.959Z,81.07
2023-02-25T06:23:53.928Z,81.90
2023-02-25T06:24:53.942Z,81.38
2023-02-25T06:25:53.937Z,81.28
2023-02-25T06:26:53.918Z,81.49
2023-02-25T06:27:53.874Z,81.59
2023-02-25T06:28:53.895Z,80.62
2023-02-25T06:29:53.857Z,80.93
2023-02-25T06:30:53.975Z,81.35
2023-02-25T06:31:53.900Z,80.62
2023-02-25T06:32:53.880Z,81.04
2023-02-25T06:33:53.809Z,81.04
2023-02-25T06:34:53.816Z,79.79
2023-02-25T06:35:53.815Z,78.96
2023-02-25T06:36:53.786Z,79.58
2023-02-25T06:37:53.747Z,79.58
2023-02-25T06:38:53.756Z,80.21
2023-02-25T06:39:53.734Z,79.79
2023-02-25T06:40:53.764Z,79.17
2023-02-25T06:41:53.720Z,79.06
2023-02-25T06:42:53.695Z,79.58
2023-02-25T06:43:53.714Z,79.58
2023-02-25T06:44:53.672Z,78.96
2023-02-25T06:45:53.743Z,79.48
2023-02-25T06:46:53.632Z,80.31
2023-02-25T06:47:53.665Z,79.17
2023-02-25T06:48:53.611Z,79.58
2023-02-25T06:49:53.632Z,80.21
2023-02-25T06:50:53.629Z,79.44
2023-02-25T06:51:53.590Z,79.65
2023-02-25T06:52:53.563Z,79.55
2023-02-25T06:53:53.568Z,79.65
2023-02-25T06:54:53.539Z,80.37
2023-02-25T06:55:53.589Z,80.89
2023-02-25T06:56:53.520Z,81.20
2023-02-25T06:57:53.520Z,80.79
2023-02-25T06:58:53.528Z,80.68
2023-02-25T06:59:53.503Z,80.68
2023-02-25T07:00:53.514Z,80.68
2023-02-25T07:01:53.458Z,80.96
2023-02-25T07:02:53.432Z,80.75
2023-02-25T07:03:53.448Z,81.48
2023-02-25T07:04:53.518Z,81.58
2023-02-25T07:05:53.560Z,82.10
2023-02-25T07:06:53.376Z,82.31
2023-02-25T07:07:53.387Z,82.41
2023-02-25T07:08:53.351Z,83.03
2023-02-25T07:09:53.365Z,83.34
2023-02-25T07:10:53.370Z,83.76
2023-02-25T07:11:53.343Z,83.76
2023-02-25T07:12:53.331Z,82.82
2023-02-25T07:13:53.315Z,82.93
2023-02-25T07:14:53.272Z,83.14
2023-02-25T07:15:53.287Z,83.45
2023-02-25T07:16:53.916Z,83.45
2023-02-25T07:17:53.251Z,83.45
2023-02-25T07:18:53.228Z,83.45
2023-02-25T07:19:53.243Z,83.34
2023-02-25T07:20:53.210Z,83.14
2023-02-25T07:21:53.210Z,82.72
2023-02-25T07:22:53.218Z,83.03
2023-02-25T07:23:53.186Z,83.14
2023-02-25T07:24:53.197Z,83.45
2023-02-25T07:25:53.149Z,83.86
2023-02-25T07:26:53.135Z,84.03
2023-02-25T07:27:53.130Z,83.41
2023-02-25T07:28:53.147Z,82.79
2023-02-25T07:29:53.107Z,83.31
2023-02-25T07:30:53.202Z,83.83
2023-02-25T07:31:53.282Z,82.37
2023-02-25T07:32:53.082Z,83.31
2023-02-25T07:33:53.061Z,83.51
2023-02-25T07:34:53.131Z,83.62
2023-02-25T07:35:53.050Z,83.62
2023-02-25T07:36:52.998Z,82.89
2023-02-25T07:37:53.025Z,81.65
2023-02-25T07:38:52.977Z,81.61
2023-02-25T07:39:52.986Z,81.09
2023-02-25T07:40:53.017Z,80.26
2023-02-25T07:41:52.971Z,80.57
2023-02-25T07:42:52.915Z,81.09
2023-02-25T07:43:52.944Z,80.85
2023-02-25T07:44:52.914Z,81.99
2023-02-25T07:45:52.933Z,81.05
2023-02-25T07:46:52.915Z,79.88
2023-02-25T07:47:52.908Z,79.67
2023-02-25T07:48:52.854Z,79.26
2023-02-25T07:49:52.880Z,78.53
2023-02-25T07:50:52.833Z,78.64
2023-02-25T07:51:52.884Z,78.33
2023-02-25T07:52:52.805Z,77.60
2023-02-25T07:53:52.819Z,77.19
2023-02-25T07:54:52.775Z,77.60
2023-02-25T07:55:52.894Z,78.02
2023-02-25T07:56:52.831Z,77.09
2023-02-25T07:57:52.764Z,77.60
2023-02-25T07:58:52.759Z,78.05
2023-02-25T07:59:52.757Z,78.36
2023-02-25T08:00:52.705Z,78.36
2023-02-25T08:01:52.796Z,78.61
2023-02-25T08:02:52.713Z,78.19
2023-02-25T08:03:52.743Z,78.92
2023-02-25T08:04:52.718Z,78.81
2023-02-25T08:05:52.663Z,78.71
2023-02-25T08:06:52.688Z,78.71
2023-02-25T08:07:52.656Z,78.92
2023-02-25T08:08:52.605Z,78.81
2023-02-25T08:09:52.613Z,79.02
2023-02-25T08:10:52.579Z,78.36
2023-02-25T08:11:52.596Z,78.12
2023-02-25T08:12:52.633Z,77.60
2023-02-25T08:13:52.562Z,77.22
2023-02-25T08:14:52.537Z,74.98
2023-02-25T08:15:52.581Z,73.81
2023-02-25T08:16:52.496Z,73.60
2023-02-25T08:17:52.520Z,73.81
2023-02-25T08:18:52.527Z,73.91
2023-02-25T08:19:52.483Z,74.33
2023-02-25T08:20:52.448Z,73.88
2023-02-25T08:21:52.458Z,73.57
2023-02-25T08:22:52.422Z,73.05
2023-02-25T08:23:52.428Z,72.85
2023-02-25T08:24:52.436Z,73.05
2023-02-25T08:25:52.419Z,72.23
2023-02-25T08:26:52.375Z,72.23
2023-02-25T08:27:52.387Z,72.61
2023-02-25T08:28:52.354Z,71.68
2023-02-25T08:29:52.349Z,71.58
2023-02-25T08:30:52.449Z,71.16
2023-02-25T08:31:52.449Z,71.34
2023-02-25T08:32:52.333Z,70.20
2023-02-25T08:33:52.309Z,70.68
2023-02-25T08:34:52.268Z,69.65
2023-02-25T08:35:52.336Z,69.65
2023-02-25T08:36:52.244Z,66.15
2023-02-25T08:37:52.247Z,65.28
2023-02-25T08:38:52.229Z,65.91
2023-02-25T08:39:52.235Z,65.21
2023-02-25T08:40:52.252Z,65.66
2023-02-25T08:41:52.216Z,65.66
2023-02-25T08:42:52.175Z,66.61
2023-02-25T08:43:52.173Z,66.93
2023-02-25T08:44:52.141Z,67.16
2023-02-25T08:45:52.193Z,68.02
2023-02-25T08:46:52.181Z,68.92
2023-02-25T08:47:52.135Z,68.68
2023-02-25T08:48:52.109Z,68.37
2023-02-25T08:49:52.097Z,68.13
2023-02-25T08:50:52.100Z,67.21
2023-02-25T08:51:52.068Z,67.17
2023-02-25T08:52:52.040Z,65.21
2023-02-25T08:53:52.047Z,65.62
2023-02-25T08:54:52.011Z,66.86
2023-02-25T08:55:52.055Z,65.62
2023-02-25T08:56:51.975Z,65.62
2023-02-25T08:57:51.987Z,64.80
2023-02-25T08:58:51.954Z,65.59
2023-02-25T08:59:51.977Z,65.98
2023-02-25T09:00:52.135Z,63.47
2023-02-25T09:01:51.957Z,63.27
2023-02-25T09:02:51.971Z,62.96
2023-02-25T09:03:51.938Z,63.57
2023-02-25T09:04:51.954Z,63.99
2023-02-25T09:05:51.923Z,63.54
2023-02-25T09:06:51.879Z,62.52
2023-02-25T09:07:51.906Z,62.52
2023-02-25T09:08:51.895Z,61.18
2023-02-25T09:09:51.864Z,60.69
2023-02-25T09:10:51.860Z,61.21
2023-02-25T09:11:51.812Z,62.16
2023-02-25T09:12:51.772Z,61.65
2023-02-25T09:13:51.799Z,63.47
2023-02-25T09:14:51.802Z,63.06
2023-02-25T09:15:51.830Z,63.24
2023-02-25T09:16:51.783Z,63.34
2023-02-25T09:17:51.732Z,63.13
2023-02-25T09:18:51.725Z,63.45
2023-02-25T09:19:51.711Z,62.62
2023-02-25T09:20:51.678Z,62.54
2023-02-25T09:21:51.750Z,61.85
2023-02-25T09:22:51.660Z,62.57
2023-02-25T09:23:51.681Z,62.40
2023-02-25T09:24:51.638Z,62.53
2023-02-25T09:25:51.640Z,63.77
2023-02-25T09:26:51.612Z,62.87
2023-02-25T09:27:51.658Z,64.11
2023-02-25T09:28:51.581Z,64.18
2023-02-25T09:29:51.593Z,63.35
2023-02-25T09:30:51.593Z,62.74
2023-02-25T09:31:51.657Z,63.15
2023-02-25T09:32:51.634Z,63.56
2023-02-25T09:33:51.580Z,63.95
2023-02-25T09:34:51.517Z,63.92
2023-02-25T09:35:51.521Z,62.78
2023-02-25T09:36:51.478Z,62.19
2023-02-25T09:37:51.477Z,63.15
2023-02-25T09:38:51.518Z,63.77
2023-02-25T09:39:51.466Z,63.43
2023-02-25T09:40:51.442Z,62.60
2023-02-25T09:41:52.890Z,62.99
2023-02-25T09:42:51.395Z,62.06
2023-02-25T09:43:51.484Z,62.13
2023-02-25T09:44:51.389Z,62.96
2023-02-25T09:45:51.454Z,61.31
2023-02-25T09:46:51.358Z,60.41
2023-02-25T09:47:51.430Z,60.61
2023-02-25T09:48:51.328Z,60.59
2023-02-25T09:49:51.404Z,60.59
2023-02-25T09:50:51.308Z,62.24
2023-02-25T09:51:51.326Z,61.82
2023-02-25T09:52:51.285Z,61.21
2023-02-25T09:53:51.306Z,62.03
2023-02-25T09:54:51.262Z,61.52
2023-02-25T09:55:51.336Z,60.31
2023-02-25T09:56:51.233Z,61.13
2023-02-25T09:57:51.248Z,61.26
2023-02-25T09:58:51.216Z,61.65
2023-02-25T09:59:51.217Z,60.93
2023-02-25T10:00:51.225Z,60.93
2023-02-25T10:01:51.184Z,60.21
2023-02-25T10:02:51.263Z,60.10
2023-02-25T10:03:51.181Z,60.41
2023-02-25T10:04:51.144Z,60.95
2023-02-25T10:05:51.212Z,61.88
2023-02-25T10:06:51.132Z,61.05
2023-02-25T10:07:51.123Z,61.08
2023-02-25T10:08:51.090Z,62.43
2023-02-25T10:09:51.094Z,62.12
2023-02-25T10:10:51.054Z,62.22
2023-02-25T10:11:51.167Z,62.63
2023-02-25T10:12:51.027Z,62.53
2023-02-25T10:13:51.044Z,63.56
2023-02-25T10:14:51.024Z,63.67
2023-02-25T10:15:53.028Z,63.84
2023-02-25T10:16:51.049Z,62.81
2023-02-25T10:17:51.074Z,62.88
2023-02-25T10:18:50.968Z,61.68
2023-02-25T10:19:50.970Z,61.57
2023-02-25T10:20:50.947Z,61.13
2023-02-25T10:21:50.954Z,61.44
2023-02-25T10:22:50.924Z,61.24
2023-02-25T10:23:50.981Z,59.86
2023-02-25T10:24:50.881Z,58.86
2023-02-25T10:25:50.884Z,58.76
2023-02-25T10:26:50.862Z,58.94
2023-02-25T10:27:50.875Z,58.40
2023-02-25T10:28:50.863Z,57.65
2023-02-25T10:29:50.904Z,56.82
2023-02-25T10:30:50.929Z,57.03
2023-02-25T10:31:50.976Z,57.65
2023-02-25T10:32:50.847Z,57.57
2023-02-25T10:33:50.810Z,57.81
2023-02-25T10:34:50.771Z,58.53
2023-02-25T10:35:50.798Z,59.38
2023-02-25T10:36:50.737Z,59.72
2023-02-25T10:37:50.740Z,60.23
2023-02-25T10:38:50.709Z,59.41
2023-02-25T10:39:50.715Z,60.64
2023-02-25T10:40:50.678Z,60.47
2023-02-25T10:41:50.777Z,59.84
2023-02-25T10:42:50.679Z,60.02
2023-02-25T10:43:50.661Z,60.47
2023-02-25T10:44:50.632Z,61.80
2023-02-25T10:45:50.752Z,59.95
2023-02-25T10:46:50.605Z,59.95
2023-02-25T10:47:50.742Z,60.67
2023-02-25T10:48:50.616Z,61.26
2023-02-25T10:49:50.575Z,61.05
2023-02-25T10:50:50.567Z,60.75
2023-02-25T10:51:50.589Z,60.54
2023-02-25T10:52:50.524Z,57.86
2023-02-25T10:53:50.605Z,57.68
2023-02-25T10:54:50.506Z,55.51
2023-02-25T10:55:50.542Z,56.05
2023-02-25T10:56:50.494Z,55.93
2023-02-25T10:57:50.522Z,56.54
2023-02-25T10:58:50.715Z,55.72
2023-02-25T10:59:50.502Z,55.00
2023-02-25T11:00:50.463Z,55.13
2023-02-25T11:01:50.420Z,55.74
2023-02-25T11:02:50.457Z,55.85
2023-02-25T11:03:50.381Z,56.57
2023-02-25T11:04:50.420Z,57.40
2023-02-25T11:05:50.435Z,57.70
2023-02-25T11:06:50.394Z,57.78
2023-02-25T11:07:50.330Z,57.89
2023-02-25T11:08:50.332Z,58.09
2023-02-25T11:09:50.311Z,58.06
2023-02-25T11:10:50.324Z,57.55
2023-02-25T11:11:50.333Z,57.24
2023-02-25T11:12:57.348Z,56.83
2023-02-25T11:13:50.263Z,55.59
2023-02-25T11:14:50.994Z,56.65
2023-02-25T11:15:53.046Z,56.34
2023-02-25T11:16:50.258Z,56.54
2023-02-25T11:17:50.216Z,56.34
2023-02-25T11:18:50.262Z,55.93
2023-02-25T11:19:50.174Z,56.23
2023-02-25T11:20:50.205Z,55.85
2023-02-25T11:21:50.227Z,56.37
2023-02-25T11:22:50.164Z,57.09
2023-02-25T11:23:50.135Z,57.21
2023-02-25T11:24:50.149Z,57.73
2023-02-25T11:25:50.112Z,57.94
2023-02-25T11:26:50.127Z,58.97
2023-02-25T11:27:50.165Z,58.35
2023-02-25T11:28:50.102Z,58.53
2023-02-25T11:29:50.051Z,58.61
2023-02-25T11:30:50.280Z,58.40
2023-02-25T11:31:50.228Z,57.37
2023-02-25T11:32:50.061Z,57.76
2023-02-25T11:33:50.041Z,58.06
2023-02-25T11:34:50.027Z,57.86
2023-02-25T11:35:49.977Z,57.45
2023-02-25T11:36:51.237Z,57.26
2023-02-25T11:37:50.040Z,57.89
2023-02-25T11:38:50.107Z,57.89
2023-02-25T11:39:50.016Z,58.17
2023-02-25T11:40:49.955Z,57.76
2023-02-25T11:41:49.948Z,58.06
2023-02-25T11:42:49.937Z,58.27
2023-02-25T11:43:49.897Z,58.06
2023-02-25T11:44:49.902Z,57.34
2023-02-25T11:45:49.893Z,57.76
2023-02-25T11:46:49.930Z,58.17
2023-02-25T11:47:49.824Z,57.96
2023-02-25T11:48:49.857Z,58.17
2023-02-25T11:49:49.808Z,58.79
2023-02-25T11:50:49.841Z,58.45
2023-02-25T11:51:49.778Z,57.81
2023-02-25T11:52:49.792Z,57.81
2023-02-25T11:53:49.866Z,57.47
2023-02-25T11:54:49.932Z,57.37
2023-02-25T11:55:49.766Z,57.44
2023-02-25T11:56:49.769Z,56.41
2023-02-25T11:57:49.708Z,57.16
2023-02-25T11:58:49.720Z,57.37
2023-02-25T11:59:49.681Z,56.03
2023-02-25T12:00:49.722Z,55.13
2023-02-25T12:01:49.650Z,55.66
2023-02-25T12:02:49.711Z,56.49
2023-02-25T12:03:49.638Z,56.93
2023-02-25T12:04:49.618Z,57.55
2023-02-25T12:05:49.740Z,57.24
2023-02-25T12:06:49.596Z,57.55
2023-02-25T12:08:05.128Z,57.47
2023-02-25T12:08:50.578Z,57.57
2023-02-25T12:09:49.580Z,57.89
2023-02-25T12:10:49.735Z,57.40
2023-02-25T12:11:49.545Z,58.25
2023-02-25T12:12:49.535Z,58.45
2023-02-25T12:13:49.518Z,58.66
2023-02-25T12:14:49.497Z,58.45
2023-02-25T12:15:49.495Z,59.28
2023-02-25T12:16:49.583Z,59.08
2023-02-25T12:17:49.448Z,59.69
2023-02-25T12:18:49.468Z,60.11
2023-02-25T12:19:49.635Z,60.42
2023-02-25T12:20:49.490Z,60.52
2023-02-25T12:21:49.388Z,61.55
2023-02-25T12:22:49.487Z,61.14
2023-02-25T12:23:49.364Z,61.55
2023-02-25T12:24:49.378Z,61.66
2023-02-25T12:25:49.383Z,61.14
2023-02-25T12:26:49.394Z,61.45
2023-02-25T12:27:49.315Z,60.80
2023-02-25T12:28:49.935Z,60.80
2023-02-25T12:29:49.336Z,61.01
2023-02-25T12:30:49.447Z,61.29
2023-02-25T12:31:49.439Z,61.29
2023-02-25T12:32:49.303Z,60.85
2023-02-25T12:33:49.280Z,60.23
2023-02-25T12:34:49.248Z,60.95
2023-02-25T12:35:49.213Z,60.23
2023-02-25T12:36:49.266Z,60.05
2023-02-25T12:37:49.199Z,60.57
2023-02-25T12:38:49.185Z,60.47
2023-02-25T12:39:49.225Z,60.77
2023-02-25T12:40:49.189Z,60.67
2023-02-25T12:41:49.168Z,60.70
2023-02-25T12:42:49.134Z,61.22
2023-02-25T12:43:49.245Z,61.73
2023-02-25T12:44:49.192Z,60.73
2023-02-25T12:45:49.111Z,61.04
2023-02-25T12:46:49.136Z,61.45
2023-02-25T12:47:49.070Z,61.87
2023-02-25T12:48:49.066Z,61.55
2023-02-25T12:49:49.060Z,62.07
2023-02-25T12:50:49.059Z,62.38
2023-02-25T12:51:49.077Z,62.69
2023-02-25T12:52:49.005Z,62.17
2023-02-25T12:53:48.981Z,62.69
2023-02-25T12:54:48.976Z,62.90
2023-02-25T12:55:49.008Z,63.00
2023-02-25T12:56:48.998Z,63.00
2023-02-25T12:57:48.929Z,62.79
2023-02-25T12:58:48.958Z,62.55
2023-02-25T12:59:48.909Z,62.66
2023-02-25T13:00:48.938Z,62.76
2023-02-25T13:01:48.904Z,62.76
2023-02-25T13:02:48.887Z,62.66
2023-02-25T13:03:48.917Z,62.25
2023-02-25T13:04:48.845Z,61.73
2023-02-25T13:05:48.841Z,62.01
2023-02-25T13:06:48.901Z,62.22
2023-02-25T13:07:48.808Z,62.22
2023-02-25T13:08:48.811Z,62.12
2023-02-25T13:09:48.784Z,62.01
2023-02-25T13:10:48.775Z,61.94
2023-02-25T13:12:10.530Z,61.83
2023-02-25T13:12:49.774Z,61.42
2023-02-25T13:13:48.792Z,62.17
2023-02-25T13:14:48.738Z,62.79
2023-02-25T13:15:48.710Z,63.10
2023-02-25T13:16:48.769Z,63.51
2023-02-25T13:17:48.673Z,63.42
2023-02-25T13:18:48.706Z,63.18
2023-02-25T13:19:48.643Z,63.21
2023-02-25T13:20:48.670Z,63.42
2023-02-25T13:21:48.691Z,63.75
2023-02-25T13:22:48.628Z,64.34
2023-02-25T13:23:49.549Z,64.68
2023-02-25T13:24:48.601Z,65.17
2023-02-25T13:25:48.578Z,65.30
2023-02-25T13:26:48.585Z,65.61
2023-02-25T13:27:48.579Z,67.24
2023-02-25T13:28:48.589Z,68.61
2023-02-25T13:29:48.524Z,69.37
2023-02-25T13:30:48.573Z,69.74
2023-02-25T13:31:48.645Z,70.26
2023-02-25T13:32:48.814Z,70.47
2023-02-25T13:33:48.468Z,70.47
2023-02-25T13:34:48.457Z,70.29
2023-02-25T13:35:48.463Z,70.26
2023-02-25T13:36:48.456Z,70.06
2023-02-25T13:37:48.425Z,70.57
2023-02-25T13:38:48.472Z,70.98
2023-02-25T13:39:48.399Z,71.02
2023-02-25T13:40:48.387Z,71.64
2023-02-25T13:41:48.367Z,72.05
2023-02-25T13:42:48.398Z,71.74
2023-02-25T13:43:48.396Z,72.26
2023-02-25T13:44:48.461Z,71.95
2023-02-25T13:45:48.333Z,72.16
2023-02-25T13:46:48.359Z,72.36
2023-02-25T13:47:48.327Z,72.16
2023-02-25T13:48:48.315Z,72.36
2023-02-25T13:49:48.277Z,72.50
2023-02-25T13:50:48.524Z,72.71
2023-02-25T13:51:48.225Z,73.02
2023-02-25T13:52:48.257Z,72.91
2023-02-25T13:53:48.225Z,73.33
2023-02-25T13:54:48.213Z,73.36
2023-02-25T13:55:48.236Z,73.57
2023-02-25T13:56:48.210Z,74.19
2023-02-25T13:57:48.160Z,74.50
2023-02-25T13:58:48.169Z,74.81
2023-02-25T13:59:48.194Z,74.91
2023-02-25T14:00:48.123Z,75.02
2023-02-25T14:01:48.171Z,74.91
2023-02-25T14:02:48.194Z,75.02
2023-02-25T14:03:48.071Z,75.19
2023-02-25T14:04:48.114Z,74.46
2023-02-25T14:05:48.063Z,74.40
2023-02-25T14:06:48.053Z,74.50
2023-02-25T14:07:48.072Z,74.40
2023-02-25T14:08:48.035Z,74.08
2023-02-25T14:09:48.027Z,73.98
2023-02-25T14:10:48.061Z,74.19
2023-02-25T14:11:48.009Z,73.74
2023-02-25T14:12:48.040Z,73.54
2023-02-25T14:13:47.962Z,73.33
2023-02-25T14:14:47.966Z,72.98
2023-02-25T14:15:48.006Z,71.95
2023-02-25T14:16:47.919Z,71.84
2023-02-25T14:17:48.084Z,71.74
2023-02-25T14:18:47.930Z,71.22
2023-02-25T14:19:47.868Z,70.92
2023-02-25T14:20:47.868Z,70.71
2023-02-25T14:21:47.839Z,70.19
2023-02-25T14:22:47.856Z,70.40
2023-02-25T14:23:47.912Z,70.40
2023-02-25T14:24:47.835Z,69.78
2023-02-25T14:25:47.787Z,69.85
2023-02-25T14:26:47.796Z,69.82
2023-02-25T14:27:47.926Z,69.09
2023-02-25T14:28:47.784Z,68.78
2023-02-25T14:29:47.786Z,68.99
2023-02-25T14:30:47.890Z,69.27
2023-02-25T14:31:47.836Z,68.96
2023-02-25T14:32:47.731Z,68.85
2023-02-25T14:33:47.706Z,68.03
2023-02-25T14:34:47.703Z,67.00
2023-02-25T14:35:47.730Z,67.00
2023-02-25T14:36:47.684Z,66.69
2023-02-25T14:37:47.655Z,66.24
2023-02-25T14:38:47.653Z,65.62
2023-02-25T14:39:47.621Z,64.90
2023-02-25T14:40:47.615Z,64.59
2023-02-25T14:41:47.674Z,64.28
2023-02-25T14:42:47.593Z,64.39
2023-02-25T14:43:47.567Z,64.80
2023-02-25T14:44:47.609Z,64.59
2023-02-25T14:45:47.586Z,64.70
2023-02-25T14:46:47.550Z,64.39
2023-02-25T14:47:47.560Z,64.59
2023-02-25T14:48:47.567Z,63.77
2023-02-25T14:49:47.488Z,63.53
2023-02-25T14:50:47.510Z,64.04
2023-02-25T14:51:47.466Z,63.64
2023-02-25T14:52:47.458Z,63.29
2023-02-25T14:53:47.509Z,63.53
2023-02-25T14:54:47.442Z,63.71
2023-02-25T14:55:47.399Z,63.60
2023-02-25T14:56:47.407Z,63.09
2023-02-25T14:57:47.381Z,62.75
2023-02-25T14:58:47.445Z,62.72
2023-02-25T14:59:47.400Z,62.52
2023-02-25T15:00:47.379Z,62.21
2023-02-25T15:01:47.357Z,62.93
2023-02-25T15:02:47.386Z,62.13
2023-02-25T15:03:47.316Z,62.47
2023-02-25T15:04:47.337Z,62.57
2023-02-25T15:05:47.375Z,63.01
2023-02-25T15:06:47.288Z,62.81
2023-02-25T15:07:47.295Z,63.12
2023-02-25T15:08:47.260Z,63.35
2023-02-25T15:09:47.258Z,63.97
2023-02-25T15:10:47.211Z,64.00
2023-02-25T15:11:47.293Z,64.42
2023-02-25T15:12:47.199Z,64.42
2023-02-25T15:13:47.200Z,64.42
2023-02-25T15:14:47.160Z,64.62
2023-02-25T15:15:47.222Z,64.73
2023-02-25T15:16:47.154Z,64.73
2023-02-25T15:17:47.167Z,64.52
2023-02-25T15:18:47.146Z,64.62
2023-02-25T15:19:47.140Z,65.14
2023-02-25T15:20:47.098Z,65.03
2023-02-25T15:21:47.202Z,64.34
2023-02-25T15:22:48.338Z,65.17
2023-02-25T15:23:47.070Z,65.58
2023-02-25T15:24:47.030Z,65.48
2023-02-25T15:25:47.063Z,65.69
2023-02-25T15:26:47.008Z,66.00
2023-02-25T15:27:47.059Z,66.10
2023-02-25T15:28:47.043Z,65.17
2023-02-25T15:29:47.005Z,65.37
2023-02-25T15:30:47.083Z,65.48
2023-02-25T15:31:47.077Z,65.58
2023-02-25T15:32:46.947Z,65.72
2023-02-25T15:33:46.945Z,65.82
2023-02-25T15:34:46.904Z,65.92
2023-02-25T15:35:47.007Z,66.23
2023-02-25T15:36:47.014Z,66.44
2023-02-25T15:37:46.890Z,66.64
2023-02-25T15:38:46.886Z,66.23
2023-02-25T15:39:46.905Z,66.54
2023-02-25T15:40:46.861Z,66.54
2023-02-25T15:41:46.865Z,66.96
2023-02-25T15:42:46.889Z,66.85
2023-02-25T15:43:46.840Z,66.85
2023-02-25T15:44:46.793Z,66.75
2023-02-25T15:45:46.806Z,66.64
2023-02-25T15:46:46.864Z,66.33
2023-02-25T15:47:46.788Z,66.03
2023-02-25T15:48:46.839Z,66.03
2023-02-25T15:49:46.753Z,65.72
2023-02-25T15:50:46.709Z,65.41
2023-02-25T15:51:46.768Z,64.78
2023-02-25T15:52:46.749Z,64.48
2023-02-25T15:53:46.682Z,64.68
2023-02-25T15:54:46.696Z,64.78
2023-02-25T15:55:46.692Z,64.58
2023-02-25T15:56:46.630Z,64.78
2023-02-25T15:57:46.678Z,64.17
2023-02-25T15:58:46.733Z,64.06
2023-02-25T15:59:46.679Z,64.40
2023-02-25T16:00:46.738Z,63.89
2023-02-25T16:01:46.670Z,63.57
2023-02-25T16:02:46.614Z,63.78
2023-02-25T16:03:46.587Z,63.99
2023-02-25T16:04:46.561Z,64.20
2023-02-25T16:05:46.612Z,64.09
2023-02-25T16:06:46.671Z,63.57
2023-02-25T16:07:46.783Z,63.81
2023-02-25T16:08:46.667Z,64.12
2023-02-25T16:09:46.645Z,64.64
2023-02-25T16:10:46.688Z,64.74
2023-02-25T16:11:46.792Z,65.05
2023-02-25T16:12:46.616Z,65.05
2023-02-25T16:13:46.632Z,65.47
2023-02-25T16:14:46.552Z,65.36
2023-02-25T16:15:46.645Z,65.26
2023-02-25T16:16:46.569Z,65.78
2023-02-25T16:17:46.437Z,65.47
2023-02-25T16:18:46.396Z,65.26
2023-02-25T16:19:46.443Z,65.16
2023-02-25T16:20:46.363Z,65.57
2023-02-25T16:21:46.354Z,65.36
2023-02-25T16:22:46.301Z,65.26
2023-02-25T16:23:46.498Z,65.78
2023-02-25T16:24:46.297Z,65.88
2023-02-25T16:25:46.276Z,65.57
2023-02-25T16:26:46.272Z,65.78
2023-02-25T16:27:46.299Z,65.91
2023-02-25T16:28:46.280Z,67.02
2023-02-25T16:29:46.276Z,69.01
2023-02-25T16:30:46.337Z,73.60
2023-02-25T16:31:46.262Z,77.47
2023-02-25T16:32:46.317Z,79.99
2023-02-25T16:33:46.174Z,81.99
2023-02-25T16:34:46.161Z,83.59
2023-02-25T16:35:46.254Z,84.83
2023-02-25T16:36:46.130Z,86.08
2023-02-25T16:37:46.149Z,86.08
2023-02-25T16:38:46.123Z,86.60
2023-02-25T16:39:46.184Z,86.74
2023-02-25T16:40:46.130Z,87.37
2023-02-25T16:41:46.150Z,87.78
2023-02-25T16:42:46.123Z,87.99
2023-02-25T16:43:46.049Z,88.20
2023-02-25T16:44:46.092Z,88.71
2023-02-25T16:45:46.072Z,89.48
2023-02-25T16:46:45.999Z,89.69
2023-02-25T16:47:46.290Z,90.00
2023-02-25T16:48:45.986Z,90.00
2023-02-25T16:49:45.978Z,90.31
2023-02-25T16:50:45.955Z,90.83
2023-02-25T16:51:45.972Z,91.14
2023-02-25T16:52:45.923Z,91.35
2023-02-25T16:53:46.027Z,91.14
2023-02-25T16:54:45.888Z,90.83
2023-02-25T16:55:45.924Z,91.14
2023-02-25T16:56:45.888Z,91.45
2023-02-25T16:57:45.930Z,91.86
2023-02-25T16:58:45.856Z,91.97
2023-02-25T16:59:45.947Z,92.28
2023-02-25T17:00:45.868Z,91.76
2023-02-25T17:01:45.860Z,92.18
2023-02-25T17:02:45.812Z,92.59
2023-02-25T17:03:45.804Z,92.38
2023-02-25T17:04:45.771Z,92.18
2023-02-25T17:05:45.869Z,92.59
2023-02-25T17:06:45.754Z,93.01
2023-02-25T17:07:45.826Z,92.90
2023-02-25T17:08:45.711Z,93.32
2023-02-25T17:09:45.724Z,93.22
2023-02-25T17:10:45.735Z,93.12
2023-02-25T17:11:45.712Z,93.01
2023-02-25T17:12:45.899Z,93.01
2023-02-25T17:14:57.614Z,93.22
2023-02-25T17:15:54.890Z,92.90
2023-02-25T17:16:54.896Z,92.49
2023-02-25T17:17:54.844Z,92.59
2023-02-25T17:18:54.800Z,92.49
2023-02-25T17:19:54.844Z,92.69
2023-02-25T17:20:54.815Z,92.90
2023-02-25T17:22:16.708Z,93.01
2023-02-25T17:22:54.771Z,92.90
2023-02-25T17:23:54.789Z,92.90
2023-02-25T17:24:54.763Z,93.53
2023-02-25T17:25:54.778Z,93.53
2023-02-25T17:26:54.814Z,93.74
2023-02-25T17:27:54.690Z,93.95
2023-02-25T17:28:54.720Z,93.74
2023-02-25T17:29:54.708Z,93.32
2023-02-25T17:30:54.786Z,93.01
2023-02-25T17:31:55.597Z,93.12
2023-02-25T17:32:54.647Z,93.12
2023-02-25T17:33:54.714Z,93.22
2023-02-25T17:34:54.635Z,93.12
2023-02-25T17:35:54.591Z,93.01
2023-02-25T17:36:54.594Z,93.32
2023-02-25T17:37:54.615Z,93.57
2023-02-25T17:38:54.577Z,93.47
2023-02-25T17:39:54.527Z,93.47
2023-02-25T17:40:54.547Z,93.68
2023-02-25T17:41:54.516Z,94.09
2023-02-25T17:42:54.526Z,94.45
2023-02-25T17:43:54.561Z,94.65
2023-02-25T17:44:54.518Z,95.07
2023-02-25T17:45:54.484Z,95.38
2023-02-25T17:46:54.493Z,95.69
2023-02-25T17:47:54.496Z,96.11
2023-02-25T17:48:54.451Z,96.52
2023-02-25T17:49:54.481Z,96.62
2023-02-25T17:50:54.416Z,96.78
2023-02-25T17:51:54.483Z,96.88
2023-02-25T17:52:54.366Z,97.09
2023-02-25T17:53:54.393Z,97.30